Time;durP1;ratioP1;P1;durP2;ratioP2;P2;SDS_P1;SDS_P2;PMS_P1;PMS_P2;Temp;Humidity;BMP_temperature;BMP_pressure;BME280_temperature;BME280_humidity;BME280_pressure;Samples;Min_cycle;Max_cycle;Signal;HPM_P1;HPM_P2
2021/12/01 00:00:55;;;;;;;19.60;6.80;;;6.90;99.90;;;;;;4995457;28;20187;-72
2021/12/01 00:03:21;;;;;;;17.23;6.70;;;6.90;99.90;;;;;;4995149;28;20466;-73
2021/12/01 00:05:47;;;;;;;11.55;5.30;;;6.90;99.90;;;;;;4991364;28;20058;-72
2021/12/01 00:08:13;;;;;;;18.67;5.93;;;6.90;99.90;;;;;;4976858;28;20067;-72
2021/12/01 00:10:40;;;;;;;19.23;6.28;;;7.00;99.90;;;;;;4978780;28;20121;-73
2021/12/01 00:13:09;;;;;;;15.63;6.03;;;6.90;99.90;;;;;;4975870;28;20031;-72
2021/12/01 00:15:36;;;;;;;22.52;7.43;;;6.90;99.90;;;;;;4975695;28;20030;-72
2021/12/01 00:18:02;;;;;;;20.75;6.95;;;6.90;99.90;;;;;;4958134;28;20027;-72
2021/12/01 00:20:27;;;;;;;21.38;7.07;;;6.90;99.90;;;;;;4975565;28;20136;-72
2021/12/01 00:22:55;;;;;;;23.05;7.53;;;6.90;99.90;;;;;;4975508;28;20122;-72
2021/12/01 00:25:22;;;;;;;22.83;9.00;;;6.90;99.90;;;;;;4980655;28;20088;-72
2021/12/01 00:27:52;;;;;;;16.95;7.70;;;7.00;99.90;;;;;;4975532;28;20027;-72
2021/12/01 00:30:19;;;;;;;18.10;7.78;;;7.00;99.90;;;;;;4975897;28;20030;-72
2021/12/01 00:32:45;;;;;;;20.90;7.97;;;7.00;99.90;;;;;;4975652;28;20030;-72
2021/12/01 00:35:10;;;;;;;16.88;8.30;;;7.00;99.90;;;;;;4975270;28;20037;-73
2021/12/01 00:37:37;;;;;;;22.08;9.32;;;7.10;99.90;;;;;;4975580;28;20054;-72
2021/12/01 00:40:05;;;;;;;18.60;7.53;;;7.00;99.90;;;;;;4974572;28;20030;-73
2021/12/01 00:42:32;;;;;;;22.55;8.80;;;7.10;99.90;;;;;;4974894;28;20126;-72
2021/12/01 00:45:01;;;;;;;17.77;8.95;;;7.10;99.90;;;;;;4975051;28;20023;-72
2021/12/01 00:50:10;;;;;;;19.73;8.88;;;7.00;99.90;;;;;;4975040;28;20027;-72
2021/12/01 00:52:35;;;;;;;18.13;8.45;;;7.10;99.90;;;;;;4974523;28;20030;-72
2021/12/01 00:55:01;;;;;;;16.70;8.68;;;7.10;99.90;;;;;;4974651;28;20042;-72
2021/12/01 00:57:27;;;;;;;18.50;8.40;;;7.10;99.90;;;;;;4975182;28;20503;-72
2021/12/01 00:59:52;;;;;;;19.85;8.68;;;7.10;99.90;;;;;;4957524;28;20034;-72
2021/12/01 01:02:18;;;;;;;16.48;8.30;;;7.10;99.90;;;;;;4957195;28;20039;-72
2021/12/01 01:04:43;;;;;;;15.77;7.88;;;7.10;99.90;;;;;;4974536;28;20038;-72
2021/12/01 01:07:09;;;;;;;16.55;8.65;;;7.10;99.90;;;;;;4957296;28;20027;-72
2021/12/01 01:09:35;;;;;;;16.73;8.00;;;7.10;99.90;;;;;;4974211;28;20078;-72
2021/12/01 01:17:37;;;;;;;13.38;8.05;;;7.10;99.90;;;;;;4994076;28;20401;-72
2021/12/01 01:20:09;;;;;;;13.07;8.25;;;7.10;99.90;;;;;;4989312;28;20033;-72
2021/12/01 01:22:35;;;;;;;14.05;8.07;;;7.10;99.90;;;;;;4974748;28;20030;-72
2021/12/01 01:25:01;;;;;;;15.00;8.15;;;7.00;99.90;;;;;;4973858;28;20161;-72
2021/12/01 01:27:26;;;;;;;14.07;8.18;;;7.10;99.90;;;;;;4974951;28;20023;-72
2021/12/01 01:29:52;;;;;;;13.50;8.48;;;7.10;99.90;;;;;;4977136;28;20023;-72
2021/12/01 01:32:17;;;;;;;16.30;9.27;;;7.10;99.90;;;;;;4976530;28;20447;-72
2021/12/01 01:34:43;;;;;;;17.92;8.95;;;7.10;99.90;;;;;;4987820;28;20034;-72
2021/12/01 01:37:09;;;;;;;18.17;9.50;;;7.10;99.90;;;;;;4995843;28;20030;-72
2021/12/01 01:39:34;;;;;;;14.27;9.38;;;7.10;99.90;;;;;;4993308;28;20028;-72
2021/12/01 01:42:00;;;;;;;17.77;9.82;;;7.10;99.90;;;;;;4974034;28;20031;-72
2021/12/01 01:44:26;;;;;;;17.85;10.90;;;7.10;99.90;;;;;;4956412;28;20492;-71
2021/12/01 01:46:52;;;;;;;17.75;11.23;;;7.10;99.90;;;;;;4974386;28;20015;-71
2021/12/01 01:49:23;;;;;;;17.58;10.15;;;7.10;99.90;;;;;;4974026;28;20388;-72
2021/12/01 01:51:49;;;;;;;15.90;9.85;;;7.10;99.90;;;;;;4974156;28;20030;-72
2021/12/01 01:54:16;;;;;;;14.35;8.73;;;7.10;99.90;;;;;;4983126;28;20062;-72
2021/12/01 01:56:43;;;;;;;15.32;9.02;;;7.10;99.90;;;;;;4993794;28;20042;-71
2021/12/01 01:59:09;;;;;;;17.83;9.98;;;7.10;99.90;;;;;;4961322;28;20031;-72
2021/12/01 02:04:15;;;;;;;13.77;9.68;;;7.10;99.90;;;;;;4981470;28;20031;-72
2021/12/01 02:06:40;;;;;;;;;;;7.20;99.90;;;;;;4993768;28;20014;-72
2021/12/01 02:09:06;;;;;;;13.60;8.68;;;7.20;99.90;;;;;;4979514;28;20005;-69
2021/12/01 02:11:32;;;;;;;13.65;7.82;;;7.20;99.90;;;;;;4974524;28;20031;-71
2021/12/01 02:13:58;;;;;;;12.43;8.02;;;7.20;99.90;;;;;;4982426;28;20035;-72
2021/12/01 02:16:24;;;;;;;12.90;8.15;;;7.30;99.90;;;;;;4993481;28;20395;-71
2021/12/01 02:18:50;;;;;;;13.75;7.80;;;7.30;99.90;;;;;;4981996;28;20035;-72
2021/12/01 02:21:28;;;;;;;10.00;6.60;;;7.40;99.90;;;;;;4974208;28;20093;-72
2021/12/01 02:23:56;;;;;;;11.95;7.22;;;7.30;99.90;;;;;;4974101;28;20105;-73
2021/12/01 02:26:23;;;;;;;10.82;7.22;;;7.40;99.90;;;;;;4972795;28;20042;-72
2021/12/01 02:28:53;;;;;;;10.00;7.07;;;7.40;99.90;;;;;;4973602;28;20114;-72
2021/12/01 02:31:19;;;;;;;11.07;7.60;;;7.40;99.90;;;;;;4973406;28;20070;-72
2021/12/01 02:33:44;;;;;;;10.70;7.20;;;7.40;99.90;;;;;;4956180;28;20396;-72
2021/12/01 02:36:11;;;;;;;10.63;6.65;;;7.50;99.90;;;;;;4956039;28;20030;-72
2021/12/01 02:38:40;;;;;;;10.93;6.50;;;7.50;99.90;;;;;;4973459;28;20031;-73
2021/12/01 02:41:06;;;;;;;10.00;6.70;;;7.50;99.90;;;;;;4981513;28;20030;-72
2021/12/01 02:43:33;;;;;;;11.98;7.30;;;7.50;99.90;;;;;;4976423;28;20036;-72
2021/12/01 02:45:59;;;;;;;13.55;7.50;;;7.60;99.90;;;;;;4977165;28;20027;-72
2021/12/01 02:48:25;;;;;;;14.55;7.95;;;7.60;99.90;;;;;;4973242;28;20033;-73
2021/12/01 02:50:53;;;;;;;14.23;7.80;;;7.70;99.90;;;;;;4973383;28;20049;-72
2021/12/01 02:53:21;;;;;;;13.35;7.90;;;7.80;99.90;;;;;;4974258;28;20027;-72
2021/12/01 02:56:01;;;;;;;15.70;9.27;;;7.80;99.90;;;;;;4977074;28;20026;-72
2021/12/01 02:58:31;;;;;;;17.17;9.68;;;7.80;99.90;;;;;;4955734;28;20058;-73
2021/12/01 03:01:02;;;;;;;18.73;9.97;;;7.90;99.90;;;;;;4954410;29;20030;-72
2021/12/01 03:03:28;;;;;;;17.17;9.52;;;7.90;99.90;;;;;;4985246;28;20293;-72
2021/12/01 03:05:56;;;;;;;18.88;10.65;;;7.90;99.90;;;;;;4993112;28;20113;-72
2021/12/01 03:08:22;;;;;;;19.25;10.50;;;8.10;99.90;;;;;;4993163;28;20018;-72
2021/12/01 03:10:51;;;;;;;16.65;9.85;;;8.10;99.90;;;;;;4974347;28;20065;-72
2021/12/01 03:13:19;;;;;;;18.67;10.88;;;8.10;99.90;;;;;;4973187;28;20030;-73
2021/12/01 03:15:45;;;;;;;23.08;13.18;;;8.10;99.90;;;;;;4977155;28;20388;-72
2021/12/01 03:18:12;;;;;;;20.50;11.95;;;8.10;99.90;;;;;;4976973;28;20054;-72
2021/12/01 03:20:37;;;;;;;20.58;12.27;;;8.20;99.90;;;;;;4990457;28;20057;-73
2021/12/01 03:23:04;;;;;;;26.33;13.30;;;8.20;99.90;;;;;;4997113;28;20476;-72
2021/12/01 03:25:29;;;;;;;26.02;13.68;;;8.20;99.90;;;;;;4996845;28;20092;-72
2021/12/01 03:27:55;;;;;;;25.27;13.55;;;8.20;99.90;;;;;;4996983;28;20501;-72
2021/12/01 03:30:22;;;;;;;25.50;14.23;;;8.30;99.90;;;;;;4982125;28;20485;-72
2021/12/01 03:32:48;;;;;;;29.92;14.20;;;8.40;99.90;;;;;;4977435;28;20023;-73
2021/12/01 03:35:15;;;;;;;25.75;13.70;;;8.50;99.90;;;;;;4977505;28;20535;-72
2021/12/01 03:37:44;;;;;;;28.70;14.60;;;8.40;99.90;;;;;;4977122;28;20402;-72
2021/12/01 03:40:11;;;;;;;28.70;14.45;;;8.40;99.90;;;;;;4976638;28;20038;-72
2021/12/01 03:42:37;;;;;;;25.42;14.05;;;8.40;99.90;;;;;;4959844;28;20026;-72
2021/12/01 03:45:05;;;;;;;28.88;14.98;;;8.50;99.90;;;;;;4977016;28;20099;-72
2021/12/01 03:47:31;;;;;;;29.38;16.10;;;8.60;99.90;;;;;;4976951;28;20387;-72
2021/12/01 03:49:56;;;;;;;31.08;16.13;;;8.60;99.90;;;;;;4976536;28;20078;-72
2021/12/01 03:52:24;;;;;;;31.13;14.40;;;8.70;99.90;;;;;;4976769;28;20023;-72
2021/12/01 03:54:50;;;;;;;28.38;15.05;;;8.70;99.90;;;;;;4976857;28;20026;-72
2021/12/01 03:57:17;;;;;;;31.98;13.93;;;8.80;99.90;;;;;;4976718;28;20388;-72
2021/12/01 03:59:43;;;;;;;26.55;12.98;;;8.80;99.90;;;;;;4976076;28;20362;-73
2021/12/01 04:02:09;;;;;;;29.52;14.57;;;8.90;99.90;;;;;;4976908;28;20031;-72
2021/12/01 04:04:35;;;;;;;25.75;13.32;;;8.90;99.90;;;;;;5013456;23;20042;-69
2021/12/01 04:07:01;;;;;;;25.45;13.32;;;8.90;99.90;;;;;;4977195;28;20376;-69
2021/12/01 04:09:27;;;;;;;24.38;12.43;;;9.00;99.90;;;;;;4976346;28;20384;-70
2021/12/01 04:11:52;;;;;;;24.67;11.98;;;9.00;99.90;;;;;;4977230;28;20029;-70
2021/12/01 04:14:18;;;;;;;22.20;11.07;;;9.20;99.90;;;;;;4976863;28;20027;-70
2021/12/01 04:16:44;;;;;;;21.48;10.75;;;9.20;99.90;;;;;;4977311;28;20069;-70
2021/12/01 04:19:09;;;;;;;19.52;10.15;;;9.30;99.90;;;;;;4977861;28;20082;-70
2021/12/01 04:21:36;;;;;;;18.15;9.18;;;9.30;99.90;;;;;;4975365;28;20041;-70
2021/12/01 04:24:02;;;;;;;15.40;8.93;;;9.30;99.90;;;;;;4977197;28;20027;-70
2021/12/01 04:26:31;;;;;;;14.07;7.97;;;9.40;99.90;;;;;;4976167;28;20542;-70
2021/12/01 04:28:57;;;;;;;10.05;6.65;;;9.40;99.90;;;;;;4978130;28;20068;-70
2021/12/01 04:31:24;;;;;;;10.63;6.35;;;9.40;99.90;;;;;;4976576;28;20038;-70
2021/12/01 04:33:50;;;;;;;11.23;6.63;;;9.40;99.90;;;;;;4976899;28;20033;-71
2021/12/01 04:36:20;;;;;;;8.60;5.53;;;9.40;99.90;;;;;;4977015;28;20101;-72
2021/12/01 04:38:46;;;;;;;6.55;4.55;;;9.50;99.90;;;;;;4978284;28;20114;-72
2021/12/01 04:41:14;;;;;;;7.10;4.07;;;9.50;99.90;;;;;;4976386;28;20054;-73
2021/12/01 04:43:41;;;;;;;3.95;3.05;;;9.50;99.90;;;;;;4976755;28;20472;-71
2021/12/01 04:46:06;;;;;;;4.55;3.63;;;9.50;99.90;;;;;;4976669;28;20023;-70
2021/12/01 04:48:33;;;;;;;5.57;3.38;;;9.50;99.90;;;;;;4975974;28;20037;-71
2021/12/01 04:50:59;;;;;;;4.18;3.08;;;9.50;99.90;;;;;;4975736;28;20034;-69
2021/12/01 04:53:26;;;;;;;3.58;2.72;;;9.50;99.90;;;;;;4976279;28;20074;-68
2021/12/01 04:55:54;;;;;;;4.07;3.13;;;9.50;99.90;;;;;;4975719;28;20022;-69
2021/12/01 04:58:20;;;;;;;3.30;2.58;;;9.50;99.90;;;;;;4975757;28;20113;-69
2021/12/01 05:00:47;;;;;;;3.72;2.40;;;9.60;99.90;;;;;;4975142;28;20390;-68
2021/12/01 05:03:12;;;;;;;2.90;2.53;;;9.50;99.90;;;;;;4958542;28;20085;-69
2021/12/01 05:05:38;;;;;;;3.20;2.55;;;9.50;99.90;;;;;;4975828;28;20027;-69
2021/12/01 05:08:04;;;;;;;3.53;2.35;;;9.50;99.90;;;;;;4976219;28;20488;-68
2021/12/01 05:10:30;;;;;;;3.03;2.47;;;9.50;99.90;;;;;;4975485;28;20492;-69
2021/12/01 05:12:55;;;;;;;2.30;2.10;;;9.50;99.90;;;;;;4977931;28;20027;-69
2021/12/01 05:15:21;;;;;;;3.08;2.60;;;9.50;99.90;;;;;;4975832;28;20085;-69
2021/12/01 05:17:47;;;;;;;3.55;2.50;;;9.50;99.90;;;;;;4958314;28;20134;-70
2021/12/01 05:20:13;;;;;;;5.57;2.88;;;9.50;99.90;;;;;;4975230;28;20109;-70
2021/12/01 05:22:39;;;;;;;5.70;2.97;;;9.50;99.90;;;;;;4975847;28;20038;-70
2021/12/01 05:25:05;;;;;;;3.60;3.03;;;9.50;99.90;;;;;;4975116;28;20029;-70
2021/12/01 05:27:32;;;;;;;3.50;3.10;;;9.50;99.90;;;;;;4975617;28;20041;-70
2021/12/01 05:29:58;;;;;;;4.03;3.08;;;9.50;99.90;;;;;;4974344;28;20039;-71
2021/12/01 05:32:23;;;;;;;4.18;3.47;;;9.50;99.90;;;;;;4975561;28;20061;-72
2021/12/01 05:34:49;;;;;;;3.95;3.35;;;9.50;99.90;;;;;;4974707;28;20508;-70
2021/12/01 05:37:15;;;;;;;5.97;3.90;;;9.50;99.90;;;;;;4976030;28;20492;-70
2021/12/01 05:39:44;;;;;;;4.57;3.83;;;9.50;99.90;;;;;;4974640;28;20027;-70
2021/12/01 05:42:13;;;;;;;5.40;4.22;;;9.40;99.90;;;;;;4975227;28;20034;-70
2021/12/01 05:44:40;;;;;;;5.35;4.05;;;9.40;99.90;;;;;;4974956;28;20318;-70
2021/12/01 05:47:06;;;;;;;5.07;4.22;;;9.40;99.90;;;;;;4975598;28;20027;-70
2021/12/01 05:49:32;;;;;;;5.43;3.80;;;9.40;99.90;;;;;;4974568;28;20023;-70
2021/12/01 05:51:59;;;;;;;5.13;4.30;;;9.40;99.90;;;;;;4975299;28;20071;-70
2021/12/01 05:54:25;;;;;;;4.57;4.05;;;9.40;99.90;;;;;;4957630;28;20034;-71
2021/12/01 05:56:50;;;;;;;5.38;4.43;;;9.40;99.90;;;;;;4975052;28;20392;-70
2021/12/01 05:59:16;;;;;;;4.60;4.13;;;9.40;99.90;;;;;;4974116;28;20023;-70
2021/12/01 06:01:42;;;;;;;8.40;4.68;;;9.40;99.90;;;;;;4974986;28;20050;-70
2021/12/01 06:04:07;;;;;;;6.65;4.63;;;9.40;99.90;;;;;;4974585;28;20081;-70
2021/12/01 06:06:33;;;;;;;4.70;3.70;;;9.40;99.90;;;;;;4975045;28;20118;-70
2021/12/01 06:08:59;;;;;;;5.03;4.05;;;9.40;99.90;;;;;;4974857;28;20023;-70
2021/12/01 06:11:24;;;;;;;4.57;3.63;;;9.30;99.90;;;;;;4975555;28;20042;-71
2021/12/01 06:13:53;;;;;;;5.47;4.15;;;9.30;99.90;;;;;;4975401;28;20070;-70
2021/12/01 06:16:23;;;;;;;4.78;3.90;;;9.40;99.90;;;;;;4973560;28;20039;-70
2021/12/01 06:18:49;;;;;;;3.42;2.83;;;9.40;99.90;;;;;;4975217;28;20089;-70
2021/12/01 06:21:16;;;;;;;4.00;3.55;;;9.30;99.90;;;;;;4975217;28;20023;-71
2021/12/01 06:23:42;;;;;;;5.03;3.92;;;9.40;99.90;;;;;;4974872;28;20022;-71
2021/12/01 06:26:08;;;;;;;3.65;3.25;;;9.40;99.90;;;;;;4973510;28;20546;-70
2021/12/01 06:28:33;;;;;;;3.85;3.03;;;9.40;99.90;;;;;;4961407;28;20038;-71
2021/12/01 06:30:59;;;;;;;3.97;2.88;;;9.50;99.90;;;;;;4974572;28;20362;-71
2021/12/01 06:33:24;;;;;;;4.25;3.15;;;9.40;99.90;;;;;;4974959;28;20034;-70
2021/12/01 06:35:51;;;;;;;3.40;3.10;;;9.50;99.90;;;;;;4975154;28;20182;-70
2021/12/01 06:38:18;;;;;;;3.70;2.72;;;9.50;99.90;;;;;;4975032;28;20019;-69
2021/12/01 06:40:46;;;;;;;4.30;3.05;;;9.50;99.90;;;;;;4974560;28;20073;-70
2021/12/01 06:43:11;;;;;;;3.45;3.00;;;9.40;99.90;;;;;;4974567;28;20086;-70
2021/12/01 06:45:37;;;;;;;4.53;3.00;;;9.40;99.90;;;;;;4976138;28;20031;-70
2021/12/01 06:48:03;;;;;;;3.28;2.97;;;9.40;99.90;;;;;;4976643;28;20485;-69
2021/12/01 06:50:29;;;;;;;3.03;2.50;;;9.40;99.90;;;;;;4978070;28;20058;-70
2021/12/01 06:52:55;;;;;;;3.67;3.38;;;9.30;99.90;;;;;;4978385;28;20037;-70
2021/12/01 06:55:21;;;;;;;3.58;3.20;;;9.30;99.90;;;;;;4979669;28;20038;-70
2021/12/01 06:57:47;;;;;;;3.75;3.22;;;9.30;99.90;;;;;;4978542;28;20065;-69
2021/12/01 07:00:14;;;;;;;3.78;3.08;;;9.20;99.90;;;;;;4979058;28;20062;-69
2021/12/01 07:02:40;;;;;;;3.65;3.30;;;9.20;99.90;;;;;;4960319;28;20114;-70
2021/12/01 07:05:06;;;;;;;4.05;3.65;;;9.20;99.90;;;;;;4976282;28;20077;-69
2021/12/01 07:07:32;;;;;;;4.15;3.75;;;9.20;99.90;;;;;;4978244;28;20023;-69
2021/12/01 07:09:58;;;;;;;5.10;3.78;;;9.20;99.90;;;;;;4959481;28;20030;-69
2021/12/01 07:12:23;;;;;;;4.80;4.22;;;9.20;99.90;;;;;;4959580;28;20464;-68
2021/12/01 07:14:50;;;;;;;4.60;4.10;;;9.20;99.90;;;;;;4977427;28;20109;-69
2021/12/01 07:17:15;;;;;;;5.10;4.60;;;9.20;99.90;;;;;;4960340;28;20026;-69
2021/12/01 07:19:41;;;;;;;6.63;5.35;;;9.20;99.90;;;;;;4976863;28;20041;-69
2021/12/01 07:22:07;;;;;;;6.38;5.47;;;9.10;99.90;;;;;;4977003;28;20358;-69
2021/12/01 07:24:32;;;;;;;7.47;6.78;;;9.10;99.90;;;;;;4978034;28;20026;-69
2021/12/01 07:26:58;;;;;;;9.63;8.07;;;9.10;99.90;;;;;;4979226;28;20023;-69
2021/12/01 07:29:25;;;;;;;8.80;7.90;;;9.10;99.90;;;;;;4976534;28;20034;-69
2021/12/01 07:31:51;;;;;;;10.25;9.15;;;9.10;99.90;;;;;;4977118;28;20118;-69
2021/12/01 07:34:17;;;;;;;10.23;9.15;;;9.10;99.90;;;;;;4977123;28;20026;-69
2021/12/01 07:36:42;;;;;;;10.77;9.68;;;9.10;99.90;;;;;;4976811;28;20027;-69
2021/12/01 07:39:08;;;;;;;11.75;10.55;;;9.00;99.90;;;;;;4976384;28;20389;-69
2021/12/01 07:41:34;;;;;;;12.88;10.35;;;9.10;99.90;;;;;;4976954;28;20038;-69
2021/12/01 07:43:59;;;;;;;10.82;9.48;;;9.00;99.90;;;;;;4976563;28;20518;-69
2021/12/01 07:46:25;;;;;;;12.30;10.43;;;9.10;99.90;;;;;;4976547;28;20062;-69
2021/12/01 07:48:51;;;;;;;12.38;10.68;;;9.00;99.90;;;;;;4976346;28;20153;-70
2021/12/01 07:51:16;;;;;;;11.52;10.35;;;9.00;99.90;;;;;;4976976;28;20023;-70
2021/12/01 07:53:43;;;;;;;11.88;10.60;;;9.00;99.90;;;;;;4978675;28;20074;-70
2021/12/01 07:56:08;;;;;;;11.45;9.45;;;9.00;99.90;;;;;;4977295;28;20019;-70
2021/12/01 07:58:34;;;;;;;11.65;9.95;;;9.00;99.90;;;;;;4965179;28;20023;-69
2021/12/01 08:01:00;;;;;;;11.48;9.52;;;9.00;99.90;;;;;;4977599;28;20109;-71
2021/12/01 08:03:26;;;;;;;10.15;9.02;;;9.00;99.90;;;;;;4978423;28;20034;-69
2021/12/01 08:05:52;;;;;;;10.10;8.38;;;9.00;99.90;;;;;;4976325;28;20031;-70
2021/12/01 08:08:17;;;;;;;8.60;7.70;;;9.00;99.90;;;;;;4977489;28;20027;-70
2021/12/01 08:10:45;;;;;;;9.20;8.30;;;8.90;99.90;;;;;;4961064;28;20038;-70
2021/12/01 08:13:11;;;;;;;9.00;7.78;;;8.90;99.90;;;;;;4976737;28;20034;-70
2021/12/01 08:15:36;;;;;;;9.02;7.63;;;8.90;99.90;;;;;;4977666;28;20089;-70
2021/12/01 08:18:02;;;;;;;9.05;7.15;;;8.90;99.90;;;;;;4976735;28;20033;-71
2021/12/01 08:20:28;;;;;;;8.55;7.45;;;8.90;99.90;;;;;;4980761;28;20034;-70
2021/12/01 08:22:54;;;;;;;8.93;7.57;;;8.90;99.90;;;;;;4965035;28;20058;-70
2021/12/01 08:25:21;;;;;;;7.97;7.18;;;8.90;99.90;;;;;;4976641;28;20376;-70
2021/12/01 08:27:47;;;;;;;8.02;7.20;;;8.90;99.90;;;;;;4975986;28;20098;-70
2021/12/01 08:30:13;;;;;;;7.40;6.70;;;8.90;99.90;;;;;;4976167;28;20106;-70
2021/12/01 08:32:45;;;;;;;7.03;6.25;;;8.90;99.90;;;;;;4975634;28;20034;-69
2021/12/01 08:35:11;;;;;;;7.95;6.28;;;8.90;99.90;;;;;;4975700;28;20408;-70
2021/12/01 08:37:37;;;;;;;7.28;6.10;;;8.90;99.90;;;;;;4975584;28;20031;-70
2021/12/01 08:40:03;;;;;;;10.02;6.72;;;8.90;99.90;;;;;;4975943;28;20053;-70
2021/12/01 08:42:28;;;;;;;6.60;6.05;;;8.80;99.90;;;;;;4975480;28;20395;-70
2021/12/01 08:44:54;;;;;;;6.93;6.22;;;8.80;99.90;;;;;;4976349;28;20102;-70
2021/12/01 08:47:26;;;;;;;6.95;6.35;;;8.80;99.90;;;;;;4976576;28;20038;-71
2021/12/01 08:49:52;;;;;;;7.13;6.40;;;8.80;99.90;;;;;;4976550;28;20078;-70
2021/12/01 08:52:19;;;;;;;6.82;6.20;;;8.80;99.90;;;;;;4971798;28;20042;-68
2021/12/01 08:54:45;;;;;;;5.90;5.40;;;8.80;99.90;;;;;;4976778;28;20093;-68
2021/12/01 08:57:11;;;;;;;5.50;5.00;;;8.80;99.90;;;;;;4976359;28;20035;-70
2021/12/01 08:59:37;;;;;;;5.60;5.10;;;8.80;99.90;;;;;;4973043;28;20107;-71
2021/12/01 09:02:03;;;;;;;5.53;5.03;;;8.80;99.90;;;;;;4975094;28;20141;-70
2021/12/01 09:04:29;;;;;;;7.10;5.57;;;8.80;99.90;;;;;;4975361;28;20085;-71
2021/12/01 09:06:56;;;;;;;4.97;4.45;;;8.80;99.90;;;;;;4976262;28;20097;-71
2021/12/01 09:09:21;;;;;;;4.65;4.22;;;8.80;99.90;;;;;;4974555;28;20027;-70
2021/12/01 09:11:49;;;;;;;4.68;4.28;;;8.80;99.90;;;;;;4974939;28;20041;-70
2021/12/01 09:14:16;;;;;;;4.93;3.88;;;8.80;99.90;;;;;;4975226;28;20027;-70
2021/12/01 09:16:43;;;;;;;4.10;3.70;;;8.90;99.90;;;;;;4975477;28;20416;-70
2021/12/01 09:19:09;;;;;;;4.68;4.28;;;8.90;99.90;;;;;;4958191;28;20437;-70
2021/12/01 09:21:35;;;;;;;3.53;3.22;;;8.90;99.90;;;;;;4974500;28;20117;-70
2021/12/01 09:24:01;;;;;;;4.65;3.13;;;8.90;99.90;;;;;;4974851;28;20527;-70
2021/12/01 09:26:27;;;;;;;3.15;2.95;;;8.90;99.90;;;;;;4975560;28;20023;-70
2021/12/01 09:28:53;;;;;;;2.97;2.78;;;8.90;99.90;;;;;;4975021;28;20023;-70
2021/12/01 09:31:19;;;;;;;2.78;2.58;;;9.00;99.90;;;;;;4974709;28;20054;-68
2021/12/01 09:33:44;;;;;;;3.15;2.85;;;9.00;99.90;;;;;;4975270;28;20034;-68
2021/12/01 09:36:11;;;;;;;4.22;2.88;;;9.00;99.90;;;;;;4974826;28;20082;-68
2021/12/01 09:38:37;;;;;;;2.90;2.70;;;9.00;99.90;;;;;;4975318;28;20037;-68
2021/12/01 09:41:02;;;;;;;2.88;2.67;;;9.00;99.90;;;;;;4974109;28;20109;-67
2021/12/01 09:43:31;;;;;;;3.30;3.00;;;8.90;99.90;;;;;;4975459;28;20030;-67
2021/12/01 09:45:59;;;;;;;4.10;2.92;;;8.90;99.90;;;;;;4975467;28;20026;-67
2021/12/01 09:48:26;;;;;;;3.47;3.17;;;8.90;99.90;;;;;;4975124;28;20046;-67
2021/12/01 09:50:52;;;;;;;3.58;3.28;;;8.90;99.90;;;;;;4975113;28;20401;-68
2021/12/01 09:53:17;;;;;;;3.10;2.90;;;8.90;99.90;;;;;;4977314;28;20069;-67
2021/12/01 09:55:44;;;;;;;4.75;2.70;;;8.90;99.90;;;;;;4977840;28;20030;-68
2021/12/01 09:58:13;;;;;;;2.95;2.75;;;8.90;99.90;;;;;;4974702;28;20126;-67
2021/12/01 10:00:42;;;;;;;3.05;2.50;;;9.00;99.90;;;;;;4974115;28;20030;-67
2021/12/01 10:03:09;;;;;;;3.70;2.92;;;8.90;99.90;;;;;;4974141;28;20034;-67
2021/12/01 10:05:47;;;;;;;4.03;2.60;;;9.00;99.90;;;;;;4950362;23;1129357;-50
2021/12/01 10:08:28;;;;;;;2.75;2.53;;;9.00;99.90;;;;;;4977397;28;20027;-50
2021/12/01 10:10:54;;;;;;;2.80;2.58;;;9.00;99.90;;;;;;4976454;28;20096;-51
2021/12/01 10:13:24;;;;;;;2.50;2.30;;;9.00;99.90;;;;;;4976338;28;20026;-48
2021/12/01 10:15:52;;;;;;;2.13;2.03;;;9.10;99.90;;;;;;4977094;28;20103;-51
2021/12/01 10:18:18;;;;;;;2.33;2.20;;;9.10;99.90;;;;;;4974662;28;20050;-50
2021/12/01 10:21:03;;;;;;;2.95;2.08;;;9.20;99.90;;;;;;4974470;28;20085;-48
2021/12/01 10:23:29;;;;;;;2.35;2.22;;;9.20;99.90;;;;;;4974470;28;20447;-51
2021/12/01 10:25:56;;;;;;;3.72;2.00;;;9.20;99.90;;;;;;4978231;28;20023;-51
2021/12/01 10:28:40;;;;;;;3.13;2.00;;;9.30;99.90;;;;;;4978589;28;20028;-51
2021/12/01 10:31:06;;;;;;;1.92;1.83;;;9.40;99.90;;;;;;4977270;28;20031;-52
2021/12/01 10:33:32;;;;;;;5.82;3.42;;;9.40;99.90;;;;;;4977912;28;20051;-53
2021/12/01 10:36:03;;;;;;;4.15;2.50;;;9.40;99.90;;;;;;4977692;28;20031;-52
2021/12/01 10:38:32;;;;;;;4.10;2.78;;;9.40;99.90;;;;;;4977855;28;20030;-51
2021/12/01 10:41:10;;;;;;;3.20;2.63;;;9.40;99.90;;;;;;4977108;28;20043;-50
2021/12/01 10:43:45;;;;;;;3.03;2.20;;;9.40;99.90;;;;;;4960064;28;20559;-51
2021/12/01 10:46:18;;;;;;;2.03;1.90;;;9.40;99.90;;;;;;4977374;28;20033;-51
2021/12/01 10:48:58;;;;;;;2.10;2.00;;;9.40;99.90;;;;;;4977569;28;20443;-51
2021/12/01 10:51:33;;;;;;;3.10;2.30;;;9.40;99.90;;;;;;4976830;28;20047;-50
2021/12/01 10:53:59;;;;;;;3.15;2.40;;;9.40;99.90;;;;;;4977974;28;20101;-49
2021/12/01 10:56:25;;;;;;;2.20;2.00;;;9.40;99.90;;;;;;4977191;28;20027;-50
2021/12/01 10:58:51;;;;;;;2.47;2.28;;;9.40;99.90;;;;;;4976796;28;20065;-52
2021/12/01 11:01:25;;;;;;;2.63;2.42;;;9.40;99.90;;;;;;4977251;28;20027;-50
2021/12/01 11:03:51;;;;;;;3.15;2.80;;;9.50;99.90;;;;;;4977438;28;20105;-49
2021/12/01 11:06:24;;;;;;;2.47;2.20;;;9.70;99.90;;;;;;4977114;28;20070;-50
2021/12/01 11:08:56;;;;;;;3.08;2.35;;;9.70;99.90;;;;;;4958840;28;20061;-49
2021/12/01 11:11:24;;;;;;;3.47;2.22;;;9.60;99.90;;;;;;4977361;28;20127;-52
2021/12/01 11:13:51;;;;;;;2.13;1.73;;;9.60;99.90;;;;;;4977160;28;20118;-52
2021/12/01 11:16:20;;;;;;;1.95;1.80;;;9.60;99.90;;;;;;4977128;28;20392;-52
2021/12/01 11:18:50;;;;;;;3.22;1.55;;;9.70;99.90;;;;;;4975763;28;20027;-52
2021/12/01 11:21:22;;;;;;;2.10;1.50;;;9.60;99.90;;;;;;4974953;28;20542;-53
2021/12/01 11:23:53;;;;;;;3.05;1.70;;;9.60;99.90;;;;;;4958959;28;20113;-54
2021/12/01 11:26:23;;;;;;;;;;;9.70;99.90;;;;;;4959565;28;20034;-52
2021/12/01 11:28:52;;;;;;;3.00;1.50;;;9.60;99.90;;;;;;4975481;28;19914;-51
2021/12/01 11:31:19;;;;;;;4.43;1.48;;;9.70;99.90;;;;;;4976455;28;20495;-50
2021/12/01 11:33:46;;;;;;;3.60;1.58;;;9.80;99.90;;;;;;4976371;28;20031;-49
2021/12/01 11:36:21;;;;;;;1.38;1.00;;;9.80;99.90;;;;;;4975543;28;20026;-48
2021/12/01 11:38:54;;;;;;;4.80;1.20;;;9.90;99.90;;;;;;4975319;28;20054;-51
2021/12/01 11:41:20;;;;;;;1.23;0.90;;;10.00;99.90;;;;;;4976081;28;20126;-52
2021/12/01 11:43:47;;;;;;;2.67;1.15;;;10.10;99.90;;;;;;4975656;28;20086;-53
2021/12/01 11:46:13;;;;;;;6.47;1.45;;;10.20;99.90;;;;;;4976300;28;20051;-52
2021/12/01 11:48:44;;;;;;;2.60;1.02;;;10.20;99.90;;;;;;4975897;28;20022;-51
2021/12/01 11:51:19;;;;;;;2.67;1.10;;;10.20;99.90;;;;;;4976732;28;20042;-48
2021/12/01 11:53:51;;;;;;;0.88;0.82;;;10.30;99.90;;;;;;4976641;28;20421;-48
2021/12/01 11:56:29;;;;;;;3.53;1.02;;;10.30;99.90;;;;;;4976568;28;20038;-52
2021/12/01 11:58:56;;;;;;;2.03;1.00;;;10.30;99.90;;;;;;4975794;28;20038;-53
2021/12/01 12:01:21;;;;;;;1.60;0.90;;;10.20;99.90;;;;;;4976953;28;20351;-50
2021/12/01 12:03:54;;;;;;;10.32;1.40;;;10.20;99.90;;;;;;4973560;28;20031;-50
2021/12/01 12:06:23;;;;;;;1.35;1.05;;;10.10;99.90;;;;;;4976041;28;20030;-54
2021/12/01 12:08:54;;;;;;;2.72;1.08;;;10.10;99.90;;;;;;4975519;28;20018;-50
2021/12/01 12:11:48;;;;;;;1.05;0.80;;;10.10;99.90;;;;;;4976799;28;20023;-50
2021/12/01 12:14:18;;;;;;;2.47;1.23;;;10.10;99.90;;;;;;4976035;28;20034;-49
2021/12/01 12:17:08;;;;;;;2.30;1.10;;;10.10;99.90;;;;;;4976246;28;20089;-49
2021/12/01 12:19:46;;;;;;;10.23;2.05;;;10.10;99.90;;;;;;4975228;28;20293;-50
2021/12/01 12:22:13;;;;;;;2.85;1.08;;;10.00;99.90;;;;;;4974526;28;20053;-52
2021/12/01 12:24:45;;;;;;;4.72;1.33;;;10.10;99.90;;;;;;4976208;28;20093;-54
2021/12/01 12:27:46;;;;;;;5.18;1.17;;;10.10;99.90;;;;;;4976413;28;20030;-52
2021/12/01 12:30:34;;;;;;;4.40;0.80;;;10.10;99.90;;;;;;4952498;28;20570;-52
2021/12/01 12:33:27;;;;;;;3.50;0.95;;;10.00;99.90;;;;;;4975935;28;20090;-50
2021/12/01 12:35:57;;;;;;;5.90;1.20;;;10.00;99.90;;;;;;4976209;28;20018;-48
2021/12/01 12:38:24;;;;;;;5.13;1.70;;;10.00;99.90;;;;;;4975367;28;20065;-48
2021/12/01 12:41:02;;;;;;;3.42;1.50;;;10.00;99.90;;;;;;4974459;28;20030;-49
2021/12/01 12:43:29;;;;;;;6.53;1.90;;;10.00;99.90;;;;;;4957192;28;20085;-49
2021/12/01 12:46:16;;;;;;;2.42;1.42;;;10.00;99.90;;;;;;4974749;28;20029;-49
2021/12/01 12:48:52;;;;;;;6.57;0.98;;;9.90;99.90;;;;;;4974557;28;20023;-52
2021/12/01 12:51:40;;;;;;;8.90;1.80;;;9.90;99.90;;;;;;4937813;29;20050;-52
2021/12/01 12:54:07;;;;;;;6.63;1.13;;;9.90;99.90;;;;;;4963900;28;20133;-53
2021/12/01 12:56:37;;;;;;;8.60;1.27;;;9.90;99.90;;;;;;4975100;28;20102;-52
2021/12/01 12:59:26;;;;;;;5.22;1.13;;;9.90;99.90;;;;;;4975063;28;20376;-52
2021/12/01 13:02:14;;;;;;;4.50;1.48;;;9.90;99.90;;;;;;4958184;28;20037;-50
2021/12/01 13:04:52;;;;;;;6.22;1.10;;;9.90;99.90;;;;;;4959368;28;20046;-49